Time;durP1;ratioP1;P1;durP2;ratioP2;P2;SDS_P1;SDS_P2;PMS_P1;PMS_P2;Temp;Humidity;BMP_temperature;BMP_pressure;BME280_temperature;BME280_humidity;BME280_pressure;Samples;Min_cycle;Max_cycle;Signal;HPM_P1;HPM_P2
2022/07/26 00:01:30;;;;;;;13.15;10.63;;;;;;;;;;10492498;28;20269;-75
2022/07/26 00:06:31;;;;;;;9.82;9.02;;;;;;;;;;10455420;28;20217;-75
2022/07/26 00:11:32;;;;;;;11.52;10.57;;;;;;;;;;10494250;28;20183;-75
2022/07/26 00:16:34;;;;;;;11.98;10.07;;;;;;;;;;10482485;28;20323;-76
2022/07/26 00:21:36;;;;;;;11.63;10.48;;;;;;;;;;10488029;28;20209;-74
2022/07/26 00:26:37;;;;;;;13.57;10.55;;;;;;;;;;10487333;28;20177;-75
2022/07/26 00:31:38;;;;;;;15.30;11.32;;;;;;;;;;10479235;28;20607;-75
2022/07/26 00:36:39;;;;;;;16.45;10.77;;;;;;;;;;10486149;28;20264;-74
2022/07/26 00:41:40;;;;;;;14.10;11.20;;;;;;;;;;10463273;28;20290;-75
2022/07/26 00:46:42;;;;;;;12.80;10.82;;;;;;;;;;10484503;28;20190;-74
2022/07/26 00:51:43;;;;;;;11.60;10.38;;;;;;;;;;10478696;28;20209;-75
2022/07/26 00:56:44;;;;;;;11.75;10.63;;;;;;;;;;10483998;28;20645;-74
2022/07/26 01:01:46;;;;;;;13.88;11.27;;;;;;;;;;10472977;28;20222;-74
2022/07/26 01:06:50;;;;;;;15.27;10.73;;;;;;;;;;10466862;28;20597;-74
2022/07/26 01:11:52;;;;;;;18.55;11.77;;;;;;;;;;10481990;28;20188;-76
2022/07/26 01:16:53;;;;;;;16.90;12.07;;;;;;;;;;10488377;28;20187;-74
2022/07/26 01:21:54;;;;;;;13.20;12.13;;;;;;;;;;10481178;28;20201;-74
2022/07/26 01:26:55;;;;;;;13.65;12.35;;;;;;;;;;10486088;28;20218;-74
2022/07/26 01:31:56;;;;;;;15.68;11.45;;;;;;;;;;10480419;28;20240;-74
2022/07/26 01:36:57;;;;;;;15.45;11.45;;;;;;;;;;10489332;28;20189;-74
2022/07/26 01:41:58;;;;;;;14.30;11.18;;;;;;;;;;10493500;28;20811;-72
2022/07/26 01:46:59;;;;;;;12.27;10.25;;;;;;;;;;10495525;28;20189;-74
2022/07/26 01:52:01;;;;;;;14.27;9.23;;;;;;;;;;10482347;28;20191;-75
2022/07/26 01:57:02;;;;;;;9.80;7.70;;;;;;;;;;10487971;28;20298;-74
2022/07/26 02:02:03;;;;;;;12.35;7.30;;;;;;;;;;10466889;28;20241;-74
2022/07/26 02:07:04;;;;;;;14.32;6.90;;;;;;;;;;10487362;28;20227;-75
2022/07/26 02:12:05;;;;;;;20.15;7.38;;;;;;;;;;10486426;28;20177;-74
2022/07/26 02:17:06;;;;;;;12.73;6.20;;;;;;;;;;10474490;28;20186;-74
2022/07/26 02:22:07;;;;;;;9.25;6.32;;;;;;;;;;10456958;28;20684;-74
2022/07/26 02:27:08;;;;;;;11.43;5.65;;;;;;;;;;10489430;28;20193;-74
2022/07/26 02:32:13;;;;;;;11.93;5.25;;;;;;;;;;10487864;28;20222;-74
2022/07/26 02:37:14;;;;;;;8.85;5.20;;;;;;;;;;10485971;28;20179;-74
2022/07/26 02:42:15;;;;;;;5.32;4.85;;;;;;;;;;10482614;28;20217;-75
2022/07/26 02:47:16;;;;;;;11.75;5.75;;;;;;;;;;10482279;28;20275;-75
2022/07/26 02:52:17;;;;;;;9.52;5.25;;;;;;;;;;10493506;28;20572;-74
2022/07/26 02:57:18;;;;;;;21.15;6.13;;;;;;;;;;10477424;28;20193;-73
2022/07/26 03:02:19;;;;;;;14.32;6.18;;;;;;;;;;10469943;28;20588;-75
2022/07/26 03:07:20;;;;;;;13.23;7.47;;;;;;;;;;10479707;28;20185;-74
2022/07/26 03:12:21;;;;;;;13.85;6.55;;;;;;;;;;10493745;28;20198;-74
2022/07/26 03:17:22;;;;;;;14.95;5.70;;;;;;;;;;10487648;28;20217;-74
2022/07/26 03:22:23;;;;;;;13.80;6.70;;;;;;;;;;10483107;28;20292;-73
2022/07/26 03:27:24;;;;;;;9.98;6.55;;;;;;;;;;10482392;28;20718;-73
2022/07/26 03:32:26;;;;;;;17.00;6.22;;;;;;;;;;10487337;28;20221;-74
2022/07/26 03:37:27;;;;;;;10.80;6.30;;;;;;;;;;10487423;28;20300;-73
2022/07/26 03:42:28;;;;;;;10.75;6.45;;;;;;;;;;10472330;28;20233;-73
2022/07/26 03:47:29;;;;;;;9.98;6.13;;;;;;;;;;10493499;28;20228;-73
2022/07/26 03:52:30;;;;;;;11.40;6.38;;;;;;;;;;10487272;28;20185;-73
2022/07/26 03:57:31;;;;;;;7.60;5.68;;;;;;;;;;10486438;28;20216;-73
2022/07/26 04:02:32;;;;;;;6.05;5.43;;;;;;;;;;10485132;28;21445;-74
2022/07/26 04:07:33;;;;;;;8.80;5.90;;;;;;;;;;10483557;28;20183;-73
2022/07/26 04:12:34;;;;;;;13.48;5.80;;;;;;;;;;10485737;28;20646;-73
2022/07/26 04:17:39;;;;;;;17.05;6.10;;;;;;;;;;10486777;28;20197;-74
2022/07/26 04:22:40;;;;;;;10.07;5.72;;;;;;;;;;10486330;28;20206;-73
2022/07/26 04:27:42;;;;;;;15.23;6.53;;;;;;;;;;10484283;28;20529;-72
2022/07/26 04:32:44;;;;;;;14.23;6.78;;;;;;;;;;10487285;28;20689;-73
2022/07/26 04:37:45;;;;;;;10.02;5.90;;;;;;;;;;10442055;28;20253;-72
2022/07/26 04:42:46;;;;;;;13.73;6.40;;;;;;;;;;10482534;28;20260;-72
2022/07/26 04:47:49;;;;;;;19.08;7.88;;;;;;;;;;10490938;28;20197;-73
2022/07/26 04:52:51;;;;;;;12.02;5.72;;;;;;;;;;10485177;28;20269;-72
2022/07/26 04:57:52;;;;;;;13.25;5.88;;;;;;;;;;10463302;28;20216;-68
2022/07/26 05:02:54;;;;;;;7.40;6.25;;;;;;;;;;10475378;28;20222;-67
2022/07/26 05:07:56;;;;;;;14.45;6.30;;;;;;;;;;10483263;28;20198;-68
2022/07/26 05:12:58;;;;;;;11.98;5.32;;;;;;;;;;10475883;28;20190;-69
2022/07/26 05:18:03;;;;;;;7.60;4.60;;;;;;;;;;10474893;28;20257;-69
2022/07/26 05:23:04;;;;;;;6.95;4.25;;;;;;;;;;10485768;28;20218;-69
2022/07/26 05:28:05;;;;;;;14.48;3.58;;;;;;;;;;10451512;28;20186;-70
2022/07/26 05:33:06;;;;;;;10.68;3.10;;;;;;;;;;10483216;28;20691;-70
2022/07/26 05:38:07;;;;;;;4.65;2.72;;;;;;;;;;10484626;28;20178;-69
2022/07/26 05:43:09;;;;;;;4.18;2.20;;;;;;;;;;10465568;28;20661;-70
2022/07/26 05:48:10;;;;;;;6.03;2.00;;;;;;;;;;10489326;28;20205;-68
2022/07/26 05:53:11;;;;;;;6.45;2.53;;;;;;;;;;10496335;28;20877;-74
2022/07/26 05:58:12;;;;;;;3.47;2.17;;;;;;;;;;10485100;28;20169;-73
2022/07/26 06:03:22;;;;;;;3.28;1.35;;;;;;;;;;10487389;28;20253;-75
2022/07/26 06:08:24;;;;;;;10.40;1.92;;;;;;;;;;10474591;28;20179;-74
2022/07/26 06:13:25;;;;;;;4.65;1.45;;;;;;;;;;10481258;28;20191;-74
2022/07/26 06:18:26;;;;;;;1.55;1.40;;;;;;;;;;10485568;28;20221;-75
2022/07/26 06:23:27;;;;;;;4.95;1.67;;;;;;;;;;10475473;28;20182;-75
2022/07/26 06:28:28;;;;;;;5.55;1.60;;;;;;;;;;10480385;28;20194;-71
2022/07/26 06:33:29;;;;;;;4.95;1.50;;;;;;;;;;10482421;28;20314;-74
2022/07/26 06:38:30;;;;;;;5.03;1.20;;;;;;;;;;10485860;28;20202;-77
2022/07/26 06:43:31;;;;;;;2.15;1.20;;;;;;;;;;10464018;28;20193;-73
2022/07/26 06:48:34;;;;;;;2.05;1.30;;;;;;;;;;10479584;28;20213;-74
2022/07/26 06:53:35;;;;;;;5.57;1.40;;;;;;;;;;10485431;28;20293;-72
2022/07/26 06:58:36;;;;;;;10.65;1.33;;;;;;;;;;10477557;28;20293;-74
2022/07/26 07:03:37;;;;;;;2.90;1.20;;;;;;;;;;10468447;28;20205;-73
2022/07/26 07:08:38;;;;;;;2.25;1.08;;;;;;;;;;10451815;28;20182;-72
2022/07/26 07:13:39;;;;;;;2.72;1.23;;;;;;;;;;10474687;28;20182;-75
2022/07/26 07:18:41;;;;;;;2.53;1.25;;;;;;;;;;10480883;28;20201;-73
2022/07/26 07:23:42;;;;;;;5.55;1.13;;;;;;;;;;10483079;28;20643;-74
2022/07/26 07:28:43;;;;;;;20.70;1.65;;;;;;;;;;10471908;28;20194;-75
2022/07/26 07:33:44;;;;;;;11.40;1.80;;;;;;;;;;10487491;28;20604;-74
2022/07/26 07:38:45;;;;;;;6.50;1.48;;;;;;;;;;10474537;28;20214;-74
2022/07/26 07:43:46;;;;;;;4.63;1.25;;;;;;;;;;10479673;28;20174;-76
2022/07/26 07:48:47;;;;;;;4.90;1.23;;;;;;;;;;10453601;28;22194;-76
2022/07/26 07:53:48;;;;;;;3.08;1.40;;;;;;;;;;10486579;28;20185;-76
2022/07/26 07:58:49;;;;;;;3.20;1.13;;;;;;;;;;10449757;28;20200;-76
2022/07/26 08:03:52;;;;;;;3.40;1.40;;;;;;;;;;10480125;28;20242;-75
2022/07/26 08:08:53;;;;;;;2.58;1.67;;;;;;;;;;10480036;28;20189;-78
2022/07/26 08:13:54;;;;;;;3.72;1.90;;;;;;;;;;10473908;28;20212;-82
2022/07/26 08:18:55;;;;;;;9.20;1.85;;;;;;;;;;10485840;28;20202;-80
2022/07/26 08:23:56;;;;;;;3.03;1.98;;;;;;;;;;10484291;28;20186;-77
2022/07/26 08:28:57;;;;;;;1.90;1.80;;;;;;;;;;10487722;28;20220;-80
2022/07/26 08:33:58;;;;;;;2.88;2.33;;;;;;;;;;10482913;28;20709;-78
2022/07/26 08:39:00;;;;;;;3.88;2.05;;;;;;;;;;10484219;28;20198;-79
2022/07/26 08:44:05;;;;;;;4.93;1.90;;;;;;;;;;10464993;28;20567;-81
2022/07/26 08:49:08;;;;;;;3.45;1.83;;;;;;;;;;10482483;28;20201;-80
2022/07/26 08:54:11;;;;;;;5.20;2.38;;;;;;;;;;10482273;28;20186;-79
2022/07/26 08:59:13;;;;;;;2.83;2.00;;;;;;;;;;10480788;28;20217;-79
2022/07/26 09:04:18;;;;;;;2.40;1.83;;;;;;;;;;10487415;28;20206;-79
2022/07/26 09:09:19;;;;;;;2.58;1.48;;;;;;;;;;10476060;28;20239;-78
2022/07/26 09:14:20;;;;;;;2.65;1.58;;;;;;;;;;10481188;28;20212;-79
2022/07/26 09:19:22;;;;;;;1.83;1.00;;;;;;;;;;10490996;28;20210;-80
2022/07/26 09:24:40;;;;;;;2.65;1.00;;;;;;;;;;10493662;28;20166;-78
2022/07/26 09:29:42;;;;;;;1.85;1.30;;;;;;;;;;10488107;28;20186;-79
2022/07/26 09:34:43;;;;;;;4.50;1.38;;;;;;;;;;10485639;28;20607;-78
2022/07/26 09:39:55;;;;;;;3.65;1.50;;;;;;;;;;10489741;28;20285;-79
2022/07/26 09:44:56;;;;;;;2.50;1.73;;;;;;;;;;10486361;28;20253;-78
2022/07/26 09:50:11;;;;;;;1.95;1.40;;;;;;;;;;10486857;28;20277;-78
2022/07/26 09:55:15;;;;;;;1.33;1.00;;;;;;;;;;10497484;28;20186;-81
2022/07/26 10:00:16;;;;;;;3.10;1.17;;;;;;;;;;10475431;28;20221;-81
2022/07/26 10:05:17;;;;;;;4.13;1.20;;;;;;;;;;10499535;28;20229;-80
2022/07/26 10:10:25;;;;;;;4.85;1.60;;;;;;;;;;10508108;28;20182;-79
2022/07/26 10:15:39;;;;;;;1.48;1.35;;;;;;;;;;10492503;28;20270;-81
2022/07/26 10:20:48;;;;;;;6.75;1.80;;;;;;;;;;10496999;28;20248;-80
2022/07/26 10:25:49;;;;;;;1.27;1.20;;;;;;;;;;10494030;28;20352;-80
2022/07/26 10:30:50;;;;;;;1.30;1.20;;;;;;;;;;10464626;28;20228;-80
2022/07/26 10:35:54;;;;;;;5.78;1.77;;;;;;;;;;10491771;28;20415;-78
2022/07/26 10:40:56;;;;;;;2.25;2.10;;;;;;;;;;10445371;28;20201;-79
2022/07/26 10:46:15;;;;;;;3.13;2.55;;;;;;;;;;10495898;28;20209;-79
2022/07/26 10:51:32;;;;;;;3.28;2.20;;;;;;;;;;10491438;28;20214;-79
2022/07/26 10:56:33;;;;;;;6.03;1.80;;;;;;;;;;10489088;28;20232;-77
2022/07/26 11:01:37;;;;;;;2.40;0.80;;;;;;;;;;10479036;28;20235;-73
2022/07/26 11:06:39;;;;;;;0.60;0.40;;;;;;;;;;10479504;28;20178;-78
2022/07/26 11:11:40;;;;;;;0.85;0.50;;;;;;;;;;10464282;28;20186;-79
2022/07/26 11:16:42;;;;;;;2.63;0.47;;;;;;;;;;10484714;28;20186;-78
2022/07/26 11:21:45;;;;;;;1.40;0.50;;;;;;;;;;10380925;28;20325;-79
2022/07/26 11:26:48;;;;;;;0.40;0.40;;;;;;;;;;10433597;28;20263;-79
2022/07/26 11:31:49;;;;;;;1.60;0.60;;;;;;;;;;10489485;28;20717;-79
2022/07/26 11:36:52;;;;;;;0.57;0.57;;;;;;;;;;10457786;28;20185;-78
2022/07/26 11:41:57;;;;;;;1.23;0.60;;;;;;;;;;10454507;28;20875;-78
2022/07/26 11:46:58;;;;;;;5.30;0.85;;;;;;;;;;10482734;28;20948;-79
2022/07/26 11:52:01;;;;;;;1.55;0.77;;;;;;;;;;10461737;28;20266;-79
2022/07/26 11:57:03;;;;;;;1.95;0.90;;;;;;;;;;10488130;28;20947;-76
2022/07/26 12:02:06;;;;;;;1.13;0.60;;;;;;;;;;10482085;28;20222;-76
2022/07/26 12:07:17;;;;;;;0.80;0.80;;;;;;;;;;10482089;28;20249;-75
2022/07/26 12:12:31;;;;;;;0.40;0.40;;;;;;;;;;10457820;28;20255;-78
2022/07/26 12:17:36;;;;;;;1.23;0.50;;;;;;;;;;10476907;28;20693;-80
2022/07/26 12:22:37;;;;;;;1.23;0.98;;;;;;;;;;10480021;28;20264;-78
2022/07/26 12:27:46;;;;;;;1.75;0.50;;;;;;;;;;10471363;28;20578;-80
2022/07/26 12:32:47;;;;;;;0.43;0.43;;;;;;;;;;10486051;28;20658;-80
2022/07/26 12:37:52;;;;;;;0.40;0.40;;;;;;;;;;10493282;28;20186;-76
2022/07/26 12:42:55;;;;;;;1.10;0.55;;;;;;;;;;10486385;28;20225;-76
2022/07/26 12:47:57;;;;;;;0.50;0.50;;;;;;;;;;10485040;28;21114;-76
2022/07/26 12:53:03;;;;;;;1.00;0.50;;;;;;;;;;10477897;28;20291;-76
2022/07/26 12:58:04;;;;;;;0.50;0.50;;;;;;;;;;10487743;28;20189;-79
2022/07/26 13:03:05;;;;;;;3.70;0.82;;;;;;;;;;10455898;28;20377;-73
2022/07/26 13:08:06;;;;;;;1.25;0.63;;;;;;;;;;10477510;28;20187;-73
2022/07/26 13:13:07;;;;;;;1.80;0.50;;;;;;;;;;10484513;28;20220;-74
2022/07/26 13:18:09;;;;;;;0.40;0.40;;;;;;;;;;10465916;28;20228;-75
2022/07/26 13:23:10;;;;;;;0.50;0.50;;;;;;;;;;10471182;28;20336;-74
2022/07/26 13:28:11;;;;;;;0.60;0.50;;;;;;;;;;10485146;28;20185;-74
2022/07/26 13:33:13;;;;;;;1.35;0.40;;;;;;;;;;10468593;28;20266;-73
2022/07/26 13:38:14;;;;;;;0.45;0.40;;;;;;;;;;10455264;28;20243;-73
2022/07/26 13:43:15;;;;;;;1.00;0.50;;;;;;;;;;10427980;28;20221;-74
2022/07/26 13:48:16;;;;;;;1.35;0.40;;;;;;;;;;10436628;28;20321;-76
2022/07/26 13:53:17;;;;;;;4.55;0.50;;;;;;;;;;10443817;28;20698;-78
2022/07/26 13:58:20;;;;;;;2.13;0.30;;;;;;;;;;10444891;28;20306;-75
2022/07/26 14:03:21;;;;;;;0.40;0.40;;;;;;;;;;10441340;28;20227;-78
2022/07/26 14:08:22;;;;;;;5.60;0.57;;;;;;;;;;10421256;28;22364;-78
2022/07/26 14:13:23;;;;;;;2.00;0.40;;;;;;;;;;10451346;28;20222;-79
2022/07/26 14:18:24;;;;;;;0.30;0.30;;;;;;;;;;10453331;28;20661;-79
2022/07/26 14:23:25;;;;;;;1.02;0.25;;;;;;;;;;10448967;28;20219;-77
2022/07/26 14:28:26;;;;;;;3.15;0.28;;;;;;;;;;10431554;28;20214;-77
2022/07/26 14:33:28;;;;;;;0.35;0.20;;;;;;;;;;10479749;28;20261;-79
2022/07/26 14:38:29;;;;;;;0.77;0.30;;;;;;;;;;10494206;28;20183;-77
2022/07/26 14:43:30;;;;;;;0.98;0.22;;;;;;;;;;10478820;28;20213;-79
2022/07/26 14:48:31;;;;;;;0.80;0.20;;;;;;;;;;10488939;28;20202;-79
2022/07/26 14:53:32;;;;;;;1.05;0.30;;;;;;;;;;10472175;28;20834;-77
2022/07/26 14:58:33;;;;;;;2.22;0.30;;;;;;;;;;10489761;28;20177;-78
2022/07/26 15:03:34;;;;;;;1.45;0.30;;;;;;;;;;10481761;28;20247;-80
2022/07/26 15:08:36;;;;;;;1.48;0.28;;;;;;;;;;10481558;28;20178;-77
2022/07/26 15:13:37;;;;;;;0.50;0.30;;;;;;;;;;10500700;28;20572;-79
2022/07/26 15:18:38;;;;;;;0.25;0.22;;;;;;;;;;10474817;28;20234;-79
2022/07/26 15:23:39;;;;;;;1.38;0.20;;;;;;;;;;10490013;28;20213;-75
2022/07/26 15:28:40;;;;;;;1.63;0.40;;;;;;;;;;10490599;28;20219;-78
2022/07/26 15:33:41;;;;;;;0.35;0.20;;;;;;;;;;10495255;28;20633;-79
2022/07/26 15:38:46;;;;;;;0.40;0.20;;;;;;;;;;10462929;28;20171;-78
2022/07/26 15:43:48;;;;;;;0.20;0.20;;;;;;;;;;10484666;28;20225;-79
2022/07/26 15:48:49;;;;;;;1.98;0.20;;;;;;;;;;10494113;28;20224;-78
2022/07/26 15:53:50;;;;;;;0.20;0.20;;;;;;;;;;10478064;28;20220;-78
2022/07/26 15:58:51;;;;;;;1.40;0.20;;;;;;;;;;10500436;28;20577;-79
2022/07/26 16:03:52;;;;;;;0.85;0.22;;;;;;;;;;10482316;28;20237;-76
2022/07/26 16:08:53;;;;;;;1.25;0.40;;;;;;;;;;10496205;28;20261;-79
2022/07/26 16:13:55;;;;;;;0.52;0.20;;;;;;;;;;10489668;28;20212;-79
2022/07/26 16:18:56;;;;;;;1.40;0.20;;;;;;;;;;10489142;28;20587;-80
2022/07/26 16:23:57;;;;;;;0.45;0.20;;;;;;;;;;10481325;28;20218;-79
2022/07/26 16:28:59;;;;;;;0.63;0.20;;;;;;;;;;10490365;28;20182;-79
2022/07/26 16:34:00;;;;;;;0.43;0.20;;;;;;;;;;10459499;28;20674;-77
2022/07/26 16:39:01;;;;;;;1.35;0.30;;;;;;;;;;10447733;28;20293;-80
2022/07/26 16:44:02;;;;;;;0.80;0.20;;;;;;;;;;10418423;28;20269;-80
2022/07/26 16:49:04;;;;;;;1.70;0.20;;;;;;;;;;10435668;28;20630;-80
2022/07/26 16:54:05;;;;;;;0.20;0.20;;;;;;;;;;10420425;28;20210;-74
2022/07/26 16:59:06;;;;;;;1.65;0.20;;;;;;;;;;10422479;28;21293;-81
2022/07/26 17:04:07;;;;;;;0.20;0.20;;;;;;;;;;10446082;28;20206;-82
2022/07/26 17:09:08;;;;;;;0.52;0.30;;;;;;;;;;10456022;28;20257;-81
2022/07/26 17:14:09;;;;;;;0.75;0.28;;;;;;;;;;10448394;28;21241;-83
2022/07/26 17:19:10;;;;;;;1.85;0.30;;;;;;;;;;10446117;28;20332;-81
2022/07/26 17:24:11;;;;;;;2.13;0.20;;;;;;;;;;10454601;28;20206;-77
2022/07/26 17:29:12;;;;;;;0.30;0.30;;;;;;;;;;10451539;28;20440;-76
2022/07/26 17:34:13;;;;;;;1.35;0.25;;;;;;;;;;10412939;28;20241;-76
2022/07/26 17:39:14;;;;;;;1.20;0.30;;;;;;;;;;10422765;28;20261;-73
2022/07/26 17:44:15;;;;;;;1.23;0.30;;;;;;;;;;10436175;28;20310;-76
2022/07/26 17:49:16;;;;;;;0.73;0.40;;;;;;;;;;10434201;28;20230;-74
2022/07/26 17:54:17;;;;;;;0.63;0.30;;;;;;;;;;10435641;28;20707;-74
2022/07/26 17:59:20;;;;;;;0.40;0.22;;;;;;;;;;10409790;28;20203;-79
2022/07/26 18:04:21;;;;;;;1.00;0.40;;;;;;;;;;10436635;28;20847;-70
2022/07/26 18:09:22;;;;;;;4.03;0.80;;;;;;;;;;10450976;28;20228;-74
2022/07/26 18:14:23;;;;;;;6.45;0.80;;;;;;;;;;10457335;28;20246;-77
2022/07/26 18:19:24;;;;;;;4.32;0.50;;;;;;;;;;10447551;28;20202;-71
2022/07/26 18:24:25;;;;;;;2.78;0.28;;;;;;;;;;10452320;28;20250;-68
2022/07/26 18:29:26;;;;;;;2.95;0.50;;;;;;;;;;10445406;28;20210;-77
2022/07/26 18:34:28;;;;;;;0.95;0.40;;;;;;;;;;10486001;28;20233;-77
2022/07/26 18:39:29;;;;;;;3.42;0.50;;;;;;;;;;10465503;28;20198;-76
2022/07/26 18:44:30;;;;;;;0.70;0.40;;;;;;;;;;10471286;28;20629;-77
2022/07/26 18:49:31;;;;;;;0.88;0.30;;;;;;;;;;10464914;28;20199;-77
2022/07/26 18:54:32;;;;;;;1.30;0.30;;;;;;;;;;10494001;28;20215;-79
2022/07/26 18:59:33;;;;;;;5.35;0.32;;;;;;;;;;10495014;28;20736;-80
2022/07/26 19:04:35;;;;;;;2.05;0.40;;;;;;;;;;10494177;28;20280;-75
2022/07/26 19:09:36;;;;;;;0.63;0.40;;;;;;;;;;10472393;28;20181;-77
2022/07/26 19:14:37;;;;;;;3.03;0.50;;;;;;;;;;10498384;28;20663;-78
2022/07/26 19:19:38;;;;;;;5.25;0.68;;;;;;;;;;10478670;28;20206;-76
2022/07/26 19:24:39;;;;;;;3.45;0.52;;;;;;;;;;10462584;28;20261;-78
2022/07/26 19:29:40;;;;;;;2.47;0.63;;;;;;;;;;10494090;28;20649;-77
2022/07/26 19:34:41;;;;;;;1.13;0.40;;;;;;;;;;10494087;28;20233;-77
2022/07/26 19:39:42;;;;;;;1.27;0.68;;;;;;;;;;10465727;28;20202;-76
2022/07/26 19:44:45;;;;;;;4.45;0.50;;;;;;;;;;10499703;28;20208;-77
2022/07/26 19:49:46;;;;;;;3.78;0.63;;;;;;;;;;10495694;28;20206;-77
2022/07/26 19:54:47;;;;;;;5.18;0.60;;;;;;;;;;10485834;28;20217;-77
2022/07/26 19:59:48;;;;;;;2.40;0.40;;;;;;;;;;10477701;28;20213;-77
2022/07/26 20:04:49;;;;;;;1.83;0.50;;;;;;;;;;10458231;28;20214;-77
2022/07/26 20:09:51;;;;;;;3.20;0.73;;;;;;;;;;10469633;28;20186;-77
2022/07/26 20:14:52;;;;;;;6.60;0.60;;;;;;;;;;10462139;28;20222;-75
2022/07/26 20:19:53;;;;;;;3.38;0.77;;;;;;;;;;10491107;28;20198;-77
2022/07/26 20:24:55;;;;;;;5.15;0.60;;;;;;;;;;10492295;28;20214;-77
2022/07/26 20:29:56;;;;;;;0.98;0.60;;;;;;;;;;10497765;28;20174;-76
2022/07/26 20:34:57;;;;;;;2.17;0.60;;;;;;;;;;10468576;28;20253;-77
2022/07/26 20:39:58;;;;;;;5.90;1.02;;;;;;;;;;10497834;28;20216;-76
2022/07/26 20:45:00;;;;;;;3.70;0.63;;;;;;;;;;10468475;28;20566;-78
2022/07/26 20:50:02;;;;;;;2.70;0.70;;;;;;;;;;10498763;28;20213;-77
2022/07/26 20:55:03;;;;;;;3.90;0.57;;;;;;;;;;10489484;28;20213;-77
2022/07/26 21:00:06;;;;;;;5.70;0.63;;;;;;;;;;10484973;28;20241;-78
2022/07/26 21:05:08;;;;;;;1.83;0.65;;;;;;;;;;10495796;28;20212;-77
2022/07/26 21:10:09;;;;;;;1.65;0.80;;;;;;;;;;10492251;28;20658;-77
2022/07/26 21:15:10;;;;;;;5.07;0.60;;;;;;;;;;10488364;28;20225;-77
2022/07/26 21:20:11;;;;;;;2.80;0.60;;;;;;;;;;10496625;28;20205;-76
2022/07/26 21:25:12;;;;;;;5.05;0.52;;;;;;;;;;10489199;28;20202;-77
2022/07/26 21:30:13;;;;;;;2.20;0.60;;;;;;;;;;10491480;28;20194;-76
2022/07/26 21:35:14;;;;;;;1.98;0.60;;;;;;;;;;10492130;28;20214;-77
2022/07/26 21:40:15;;;;;;;3.28;0.50;;;;;;;;;;10487613;28;20648;-77
2022/07/26 21:45:16;;;;;;;3.67;0.47;;;;;;;;;;10492650;28;20261;-77
2022/07/26 21:50:18;;;;;;;3.42;0.90;;;;;;;;;;10482836;28;20291;-77
2022/07/26 21:55:19;;;;;;;3.80;0.60;;;;;;;;;;10489467;28;20186;-77
2022/07/26 22:00:20;;;;;;;2.08;0.60;;;;;;;;;;10485907;28;20232;-76
2022/07/26 22:05:33;;;;;;;3.13;0.45;;;;;;;;;;10504724;28;20669;-77
2022/07/26 22:10:34;;;;;;;2.28;0.52;;;;;;;;;;10495563;28;20826;-77
2022/07/26 22:15:35;;;;;;;1.60;0.57;;;;;;;;;;10488201;28;20696;-77
2022/07/26 22:20:37;;;;;;;4.90;0.80;;;;;;;;;;10493803;28;20726;-78
2022/07/26 22:25:39;;;;;;;2.92;0.65;;;;;;;;;;10491738;28;20744;-77
2022/07/26 22:30:40;;;;;;;3.83;0.63;;;;;;;;;;10492237;28;20202;-77
2022/07/26 22:35:41;;;;;;;3.67;0.60;;;;;;;;;;10498905;28;20222;-76
2022/07/26 22:40:42;;;;;;;1.77;0.50;;;;;;;;;;10478770;28;20245;-75
2022/07/26 22:45:43;;;;;;;2.15;0.63;;;;;;;;;;10480738;28;20198;-77
2022/07/26 22:50:44;;;;;;;2.05;0.50;;;;;;;;;;10499017;28;20223;-77
2022/07/26 22:55:46;;;;;;;4.47;0.50;;;;;;;;;;10478273;28;20261;-76
2022/07/26 23:00:47;;;;;;;4.40;0.80;;;;;;;;;;10470362;28;20304;-77
2022/07/26 23:05:49;;;;;;;1.55;0.50;;;;;;;;;;10497081;28;20174;-76
2022/07/26 23:10:51;;;;;;;4.53;0.80;;;;;;;;;;10499104;28;20217;-76
2022/07/26 23:15:52;;;;;;;4.10;0.50;;;;;;;;;;10490975;28;20190;-75
2022/07/26 23:20:53;;;;;;;5.57;0.80;;;;;;;;;;10501213;28;20222;-77
2022/07/26 23:25:54;;;;;;;6.78;0.82;;;;;;;;;;10492637;28;20183;-76
2022/07/26 23:30:55;;;;;;;3.30;0.70;;;;;;;;;;10454030;28;20234;-76
2022/07/26 23:35:56;;;;;;;2.47;0.50;;;;;;;;;;10490993;28;20186;-76
2022/07/26 23:40:57;;;;;;;3.50;0.57;;;;;;;;;;10470819;28;20213;-77
2022/07/26 23:45:58;;;;;;;5.10;0.57;;;;;;;;;;10477956;28;20174;-76
2022/07/26 23:50:59;;;;;;;4.90;0.60;;;;;;;;;;10491661;28;20217;-76
2022/07/26 23:56:00;;;;;;;3.20;0.50;;;;;;;;;;10497922;28;20178;-75
